Whale Cove, Canada
Current Conditions -  °F | °C
As of 6:00 AM on Saturday 25 Oct 2014 (Local Time) from CYRT Reporting Station
Light Snow Light Snow  
Wind Chill: 17°   Ceiling: 1200
Heat Index: 30°   Visibility: 3mi
Dew Point: 27°   Wind: 23mph
Humidity: 86%   Direction: 80°E
Pressure: 29.66"   Gusts: 36mph
Location:  62.17°N, 92.58°W
Report Text: CYRT 251100Z 08020G31KT 3SM -SN OVC012 M01/M03 A2966 RMK SC8 SLP046
Loading
Personal Weather Stations






























Interactive Weather Map
Tropical Storm Tracking
New forecast layout! Learn more

10-Day Weather Forecast

Advertisements
Track Severe Weather on mobile